createdAt,value
2018-11-03T00:01:41.760Z,1.00
2018-11-03T00:04:09.914Z,1.00
2018-11-03T00:06:38.066Z,1.00
2018-11-03T00:09:08.472Z,1.00
2018-11-03T00:11:36.637Z,1.00
2018-11-03T00:14:04.883Z,1.00
2018-11-03T00:16:33.031Z,1.00
2018-11-03T00:19:01.190Z,1.00
2018-11-03T00:21:29.522Z,1.00
2018-11-03T00:23:57.716Z,1.00
2018-11-03T00:26:25.891Z,1.00
2018-11-03T00:28:54.039Z,1.00
2018-11-03T00:31:22.857Z,1.00
2018-11-03T00:33:51.009Z,1.00
2018-11-03T00:36:19.162Z,1.00
2018-11-03T00:38:47.367Z,1.00
2018-11-03T00:41:15.527Z,1.00
2018-11-03T00:43:43.685Z,1.00
2018-11-03T00:46:11.856Z,1.00
2018-11-03T00:48:39.988Z,1.00
2018-11-03T00:51:08.246Z,1.00
2018-11-03T00:53:36.428Z,1.00
2018-11-03T00:56:04.916Z,1.00
2018-11-03T00:58:33.051Z,1.00
2018-11-03T01:01:01.197Z,1.00
2018-11-03T01:03:29.330Z,1.00
2018-11-03T01:05:57.517Z,1.00
2018-11-03T01:08:25.634Z,1.00
2018-11-03T01:10:53.786Z,1.00
2018-11-03T01:13:21.949Z,1.00
2018-11-03T01:15:50.094Z,1.00
2018-11-03T01:18:18.258Z,1.00
2018-11-03T01:20:50.069Z,1.00
2018-11-03T01:23:18.215Z,1.00
2018-11-03T01:25:46.374Z,1.00
2018-11-03T01:28:14.508Z,1.00
2018-11-03T01:30:42.649Z,1.00
2018-11-03T01:33:10.790Z,1.00
2018-11-03T01:35:39.524Z,1.00
2018-11-03T01:38:10.699Z,1.00
2018-11-03T01:40:42.437Z,1.00
2018-11-03T01:43:10.606Z,1.00
2018-11-03T01:45:38.754Z,1.00
2018-11-03T01:48:06.901Z,1.00
2018-11-03T01:50:35.067Z,1.00
2018-11-03T01:53:03.346Z,1.00
2018-11-03T01:55:31.498Z,1.00
2018-11-03T01:58:03.286Z,3.20
2018-11-03T02:00:31.435Z,8.10
2018-11-03T02:02:59.599Z,11.80
2018-11-03T02:05:27.733Z,11.70
2018-11-03T02:07:55.886Z,11.70
2018-11-03T02:10:24.047Z,12.50
2018-11-03T02:12:52.218Z,13.30
2018-11-03T02:15:20.383Z,15.30
2018-11-03T02:17:48.541Z,17.40
2018-11-03T02:20:16.681Z,16.20
2018-11-03T02:22:44.842Z,15.90
2018-11-03T02:25:12.986Z,16.40
2018-11-03T02:27:41.527Z,16.50
2018-11-03T02:30:10.820Z,17.40
2018-11-03T02:32:42.187Z,19.20
2018-11-03T02:35:11.413Z,21.50
2018-11-03T02:37:40.018Z,23.10
2018-11-03T02:40:09.646Z,23.70
2018-11-03T02:42:37.797Z,25.00
2018-11-03T02:45:07.123Z,27.40
2018-11-03T02:47:35.385Z,27.70
2018-11-03T02:50:03.835Z,27.00
2018-11-03T02:52:31.981Z,27.10
2018-11-03T02:55:00.143Z,26.90
2018-11-03T02:57:28.330Z,27.40
2018-11-03T02:59:56.478Z,27.50
2018-11-03T03:02:24.650Z,27.80
2018-11-03T03:04:52.821Z,27.70
2018-11-03T03:07:21.010Z,28.30
2018-11-03T03:09:49.150Z,28.80
2018-11-03T03:12:17.306Z,28.80
2018-11-03T03:14:45.463Z,27.70
2018-11-03T03:17:13.620Z,27.00
2018-11-03T03:19:41.756Z,26.90
2018-11-03T03:22:09.910Z,26.80
2018-11-03T03:24:38.092Z,28.40
2018-11-03T03:27:06.218Z,29.40
2018-11-03T03:29:34.470Z,29.20
2018-11-03T03:32:02.557Z,29.10
2018-11-03T03:34:30.717Z,29.60
2018-11-03T03:36:58.895Z,30.50
2018-11-03T03:39:27.076Z,31.00
2018-11-03T03:41:55.250Z,33.00
2018-11-03T03:44:23.443Z,36.80
2018-11-03T03:46:51.621Z,41.00
2018-11-03T03:49:19.854Z,47.20
2018-11-03T03:51:48.081Z,48.60
2018-11-03T03:54:16.258Z,48.90
2018-11-03T03:56:44.439Z,48.80
2018-11-03T03:59:12.630Z,48.60
2018-11-03T04:01:40.821Z,48.20
2018-11-03T04:04:09.004Z,48.30
2018-11-03T04:06:38.200Z,48.70
2018-11-03T04:09:07.912Z,49.70
2018-11-03T04:11:36.193Z,50.30
2018-11-03T04:14:15.235Z,51.00
2018-11-03T04:16:44.513Z,51.40
2018-11-03T04:19:12.806Z,51.80
2018-11-03T04:21:46.039Z,51.60
2018-11-03T04:24:14.571Z,50.80
2018-11-03T04:26:47.250Z,50.70
2018-11-03T04:29:31.983Z,51.00
2018-11-03T04:32:19.622Z,48.90
2018-11-03T04:34:59.474Z,47.50
2018-11-03T04:37:27.774Z,43.50
2018-11-03T04:40:15.510Z,42.00
2018-11-03T04:42:43.786Z,41.60
2018-11-03T04:45:13.040Z,41.00
2018-11-03T04:47:42.172Z,42.10
2018-11-03T04:50:10.960Z,44.30
2018-11-03T04:52:39.270Z,45.70
2018-11-03T04:55:14.729Z,47.10
2018-11-03T04:57:42.741Z,46.70
2018-11-03T05:00:24.229Z,46.80
2018-11-03T05:02:52.401Z,46.70
2018-11-03T05:05:21.595Z,47.10
2018-11-03T05:07:49.795Z,48.20
2018-11-03T05:10:18.090Z,47.80
2018-11-03T05:12:46.747Z,48.60
2018-11-03T05:15:14.983Z,48.40
2018-11-03T05:17:43.152Z,48.00
2018-11-03T05:20:11.341Z,47.20
2018-11-03T05:22:39.533Z,46.30
2018-11-03T05:25:07.758Z,44.50
2018-11-03T05:27:35.943Z,43.30
2018-11-03T05:30:04.278Z,41.40
2018-11-03T05:32:32.498Z,38.40
2018-11-03T05:35:00.754Z,37.80
2018-11-03T05:37:28.955Z,37.50
2018-11-03T05:39:57.090Z,39.60
2018-11-03T05:42:25.240Z,39.30
2018-11-03T05:44:53.390Z,38.90
2018-11-03T05:47:21.534Z,36.50
2018-11-03T05:49:49.698Z,34.40
2018-11-03T05:52:17.832Z,35.50
2018-11-03T05:54:46.033Z,35.10
2018-11-03T05:57:14.793Z,32.70
2018-11-03T05:59:42.959Z,33.00
2018-11-03T06:02:11.181Z,35.00
2018-11-03T06:04:39.335Z,36.00
2018-11-03T06:07:07.484Z,38.80
2018-11-03T06:09:35.650Z,38.30
2018-11-03T06:12:03.892Z,39.50
2018-11-03T06:14:32.057Z,40.50
2018-11-03T06:17:00.202Z,40.50
2018-11-03T06:19:28.350Z,40.60
2018-11-03T06:21:56.587Z,40.30
2018-11-03T06:24:24.837Z,40.30
2018-11-03T06:26:52.982Z,39.40
2018-11-03T06:29:21.151Z,39.70
2018-11-03T06:31:49.298Z,40.50
2018-11-03T06:34:17.443Z,39.50
2018-11-03T06:36:45.680Z,35.50
2018-11-03T06:39:13.887Z,34.30
2018-11-03T06:41:42.048Z,33.00
2018-11-03T06:44:10.199Z,34.70
2018-11-03T06:46:38.451Z,39.10
2018-11-03T06:49:11.862Z,44.00
2018-11-03T06:51:40.675Z,45.40
2018-11-03T06:54:08.826Z,47.30
2018-11-03T06:56:36.965Z,50.20
2018-11-03T06:59:05.144Z,49.30
2018-11-03T07:01:33.357Z,50.10
2018-11-03T07:04:01.518Z,50.10
2018-11-03T07:06:29.686Z,50.50
2018-11-03T07:08:57.830Z,50.70
2018-11-03T07:11:26.054Z,48.70
2018-11-03T07:13:54.262Z,46.30
2018-11-03T07:16:22.608Z,45.00
2018-11-03T07:18:50.805Z,45.40
2018-11-03T07:21:18.987Z,44.70
2018-11-03T07:23:47.124Z,44.70
2018-11-03T07:26:15.313Z,43.10
2018-11-03T07:28:43.459Z,42.50
2018-11-03T07:31:11.679Z,43.60
2018-11-03T07:33:40.540Z,42.40
2018-11-03T07:36:08.709Z,41.60
2018-11-03T07:38:36.924Z,42.90
2018-11-03T07:41:05.397Z,45.10
2018-11-03T07:43:33.513Z,48.10
2018-11-03T07:46:01.699Z,47.90
2018-11-03T07:48:29.896Z,47.70
2018-11-03T07:50:58.085Z,47.20
2018-11-03T07:53:26.253Z,49.20
2018-11-03T07:55:54.429Z,50.30
2018-11-03T07:58:22.635Z,51.00
2018-11-03T08:00:50.829Z,53.20
2018-11-03T08:03:19.008Z,55.30
2018-11-03T08:05:47.199Z,56.20
2018-11-03T08:08:15.406Z,58.80
2018-11-03T08:10:43.599Z,56.00
2018-11-03T08:13:12.753Z,48.40
2018-11-03T08:15:40.977Z,44.50
2018-11-03T08:18:09.150Z,43.80
2018-11-03T08:20:37.345Z,41.90
2018-11-03T08:23:05.538Z,38.90
2018-11-03T08:25:33.726Z,36.90
2018-11-03T08:28:01.903Z,33.40
2018-11-03T08:30:30.081Z,24.40
2018-11-03T08:32:58.326Z,19.40
2018-11-03T08:35:26.494Z,19.20
2018-11-03T08:37:54.658Z,17.80
2018-11-03T08:40:22.809Z,3.80
2018-11-03T08:42:51.057Z,1.00
2018-11-03T08:45:19.218Z,1.00
2018-11-03T08:47:47.346Z,1.00
2018-11-03T08:50:17.681Z,1.00
2018-11-03T08:58:45.209Z,1.00
2018-11-03T09:01:13.447Z,1.00
2018-11-03T09:03:41.516Z,1.00
2018-11-03T09:06:09.649Z,1.00
2018-11-03T09:08:37.878Z,1.00
2018-11-03T09:11:06.033Z,1.00
2018-11-03T09:13:34.381Z,1.00
2018-11-03T09:16:02.498Z,1.00
2018-11-03T09:18:30.613Z,1.00
2018-11-03T09:20:58.737Z,1.00
2018-11-03T09:23:26.917Z,1.00
2018-11-03T09:25:58.066Z,1.00
2018-11-03T09:28:32.905Z,1.00
2018-11-03T09:31:01.022Z,1.00
2018-11-03T09:33:29.161Z,1.00
2018-11-03T09:35:57.384Z,1.00
2018-11-03T09:38:25.559Z,1.00
2018-11-03T09:40:53.603Z,1.00
2018-11-03T09:43:21.766Z,1.00
2018-11-03T09:45:49.851Z,1.00
2018-11-03T09:48:17.961Z,1.00
2018-11-03T09:50:46.079Z,1.00
2018-11-03T09:53:14.199Z,1.00
2018-11-03T09:55:42.310Z,1.00
2018-11-03T09:58:11.450Z,1.00
2018-11-03T10:00:39.544Z,1.00
2018-11-03T10:03:07.664Z,1.00
2018-11-03T10:05:35.796Z,1.00
2018-11-03T10:08:03.918Z,1.00
2018-11-03T10:10:32.009Z,1.00
2018-11-03T10:13:00.152Z,1.00
2018-11-03T10:15:28.247Z,1.00
2018-11-03T10:17:56.365Z,1.00
2018-11-03T10:20:24.519Z,1.00
2018-11-03T10:22:52.692Z,1.00
2018-11-03T10:25:20.736Z,1.00
2018-11-03T10:27:49.269Z,1.00
2018-11-03T10:30:17.941Z,1.00
2018-11-03T10:32:46.597Z,1.00
2018-11-03T10:35:15.025Z,1.00
2018-11-03T10:37:43.337Z,1.00
2018-11-03T10:40:14.785Z,1.00
2018-11-03T10:42:43.217Z,1.00
2018-11-03T10:45:12.636Z,1.00
2018-11-03T10:47:40.836Z,1.00
2018-11-03T10:50:11.528Z,1.00
2018-11-03T10:52:40.566Z,1.00
2018-11-03T10:55:09.434Z,1.00
2018-11-03T10:57:38.138Z,1.00
2018-11-03T11:00:10.708Z,1.00
2018-11-03T11:02:44.461Z,1.00
2018-11-03T11:05:18.165Z,1.00
2018-11-03T11:07:51.697Z,1.00
2018-11-03T11:10:25.234Z,1.00
2018-11-03T11:12:53.765Z,1.00
2018-11-03T11:15:21.951Z,1.00
2018-11-03T11:17:50.070Z,1.00
2018-11-03T11:20:18.202Z,1.00
2018-11-03T11:22:46.355Z,1.00
2018-11-03T11:25:14.564Z,1.00
2018-11-03T11:27:42.628Z,1.00
2018-11-03T11:30:12.528Z,1.00
2018-11-03T11:32:40.887Z,1.00
2018-11-03T11:35:08.892Z,1.00
2018-11-03T11:37:37.243Z,1.00
2018-11-03T11:40:05.892Z,1.00
2018-11-03T11:42:34.009Z,1.00
2018-11-03T11:45:02.139Z,1.00
2018-11-03T11:47:30.251Z,1.00
2018-11-03T11:49:58.369Z,1.00
2018-11-03T11:52:26.490Z,1.00
2018-11-03T11:54:54.625Z,1.00
2018-11-03T11:57:22.726Z,1.00
2018-11-03T11:59:50.833Z,1.00
2018-11-03T12:02:18.948Z,1.00
2018-11-03T12:04:47.034Z,1.00
2018-11-03T12:07:15.213Z,1.00
2018-11-03T12:09:43.317Z,1.00
2018-11-03T12:12:11.419Z,1.00
2018-11-03T12:14:39.535Z,1.00
2018-11-03T12:17:07.625Z,1.00
2018-11-03T12:19:35.765Z,1.00
2018-11-03T12:22:03.945Z,1.00
2018-11-03T12:24:32.230Z,1.00
2018-11-03T12:27:00.323Z,1.00
2018-11-03T12:29:28.437Z,1.00
2018-11-03T12:31:56.598Z,1.00
2018-11-03T12:34:24.729Z,1.00
2018-11-03T12:36:52.860Z,1.00
2018-11-03T12:39:20.974Z,1.00
2018-11-03T12:41:49.097Z,1.00
2018-11-03T12:44:17.227Z,1.00
2018-11-03T12:46:45.343Z,1.00
2018-11-03T12:49:13.456Z,1.00
2018-11-03T12:51:41.587Z,1.00
2018-11-03T12:54:09.690Z,1.00
2018-11-03T12:56:37.792Z,1.00
2018-11-03T12:59:05.980Z,1.00
2018-11-03T13:01:34.041Z,1.00
2018-11-03T13:04:02.311Z,1.00
2018-11-03T13:06:30.449Z,1.00
2018-11-03T13:08:58.657Z,1.00
2018-11-03T13:11:26.721Z,1.00
2018-11-03T13:13:54.827Z,1.00
2018-11-03T13:16:23.799Z,1.00
2018-11-03T13:18:51.908Z,1.00
2018-11-03T13:21:20.021Z,1.00
2018-11-03T13:23:48.118Z,1.00
2018-11-03T13:26:16.238Z,1.00
2018-11-03T13:28:44.350Z,1.00
2018-11-03T13:31:12.469Z,1.00
2018-11-03T13:33:40.577Z,1.00
2018-11-03T13:36:08.818Z,1.00
2018-11-03T13:38:36.937Z,1.00
2018-11-03T13:41:05.138Z,1.00
2018-11-03T13:43:33.238Z,1.00
2018-11-03T13:46:01.354Z,1.00
2018-11-03T13:48:29.449Z,1.00
2018-11-03T13:50:57.573Z,1.00
2018-11-03T13:53:25.674Z,1.00
2018-11-03T13:55:53.778Z,1.00
2018-11-03T13:58:21.887Z,1.00
2018-11-03T14:00:49.998Z,1.00
2018-11-03T14:03:18.098Z,1.00
2018-11-03T14:05:46.218Z,1.00
2018-11-03T14:08:14.307Z,1.00
2018-11-03T14:10:42.413Z,1.00
2018-11-03T14:13:10.515Z,1.00
2018-11-03T14:15:38.634Z,1.00
2018-11-03T14:18:06.777Z,1.00
2018-11-03T14:20:34.887Z,1.00
2018-11-03T14:23:02.960Z,1.00
2018-11-03T14:25:31.097Z,1.00
2018-11-03T14:27:59.208Z,1.00
2018-11-03T14:30:27.296Z,1.00
2018-11-03T14:32:55.401Z,1.00
2018-11-03T14:35:23.858Z,1.00
2018-11-03T14:37:51.998Z,1.00
2018-11-03T14:40:20.129Z,1.00
2018-11-03T14:42:48.271Z,1.00
2018-11-03T14:45:17.113Z,1.00
2018-11-03T14:47:45.161Z,1.00
2018-11-03T14:50:13.293Z,1.00
2018-11-03T14:52:42.382Z,1.00
2018-11-03T14:55:11.261Z,1.00
2018-11-03T14:57:39.434Z,1.00
2018-11-03T15:00:11.365Z,1.00
2018-11-03T15:02:39.505Z,1.00
2018-11-03T15:05:08.470Z,1.00
2018-11-03T15:07:36.768Z,1.00
2018-11-03T15:10:05.990Z,1.00
2018-11-03T15:12:34.112Z,1.00
2018-11-03T15:15:02.421Z,1.00
2018-11-03T15:17:30.449Z,1.00
2018-11-03T15:19:58.598Z,1.00
2018-11-03T15:22:26.845Z,1.00
2018-11-03T15:24:54.903Z,1.00
2018-11-03T15:27:23.044Z,1.00
2018-11-03T15:29:51.169Z,1.00
2018-11-03T15:32:19.324Z,1.00
2018-11-03T15:34:47.443Z,1.00
2018-11-03T15:37:15.646Z,1.00
2018-11-03T15:39:43.764Z,1.00
2018-11-03T15:42:11.889Z,1.00
2018-11-03T15:44:40.032Z,1.00
2018-11-03T15:47:08.168Z,1.00
2018-11-03T15:49:40.046Z,1.00
2018-11-03T15:52:08.282Z,1.00
2018-11-03T15:54:36.426Z,1.00
2018-11-03T15:57:05.189Z,1.00
2018-11-03T15:59:33.325Z,1.00
2018-11-03T16:02:01.463Z,1.00
2018-11-03T16:04:29.643Z,1.00
2018-11-03T16:06:57.791Z,1.00
2018-11-03T16:09:25.938Z,1.00
2018-11-03T16:11:54.143Z,1.00
2018-11-03T16:14:22.255Z,1.00
2018-11-03T16:16:50.414Z,1.00
2018-11-03T16:19:18.552Z,1.00
2018-11-03T16:21:46.705Z,1.00
2018-11-03T16:24:14.863Z,1.00
2018-11-03T16:26:43.037Z,1.00
2018-11-03T16:29:11.202Z,1.00
2018-11-03T16:31:39.329Z,1.00
2018-11-03T16:34:07.471Z,1.00
2018-11-03T16:36:35.601Z,1.00
2018-11-03T16:39:05.035Z,1.00
2018-11-03T16:41:33.183Z,1.00
2018-11-03T16:44:01.542Z,1.00
2018-11-03T16:46:29.681Z,1.00
2018-11-03T16:48:57.835Z,1.00
2018-11-03T16:51:25.974Z,1.00
2018-11-03T16:53:54.120Z,1.00
2018-11-03T16:56:22.938Z,1.00
2018-11-03T16:58:51.069Z,1.00
2018-11-03T17:01:19.233Z,1.00
2018-11-03T17:03:47.448Z,1.00
2018-11-03T17:06:15.602Z,1.00
2018-11-03T17:08:43.750Z,1.00
2018-11-03T17:11:11.934Z,1.00
2018-11-03T17:13:40.069Z,1.00
2018-11-03T17:16:08.198Z,1.00
2018-11-03T17:18:36.366Z,1.00
2018-11-03T17:21:04.433Z,1.00
2018-11-03T17:23:33.549Z,1.00
2018-11-03T17:26:01.649Z,1.00
2018-11-03T17:28:29.756Z,1.00
2018-11-03T17:30:57.871Z,1.00
2018-11-03T17:33:25.981Z,1.00
2018-11-03T17:35:54.084Z,1.00
2018-11-03T17:38:22.198Z,1.00
2018-11-03T17:40:50.296Z,1.00
2018-11-03T17:43:18.401Z,1.00
2018-11-03T17:45:46.522Z,1.00
2018-11-03T17:48:14.622Z,1.00
2018-11-03T17:50:42.793Z,1.00
2018-11-03T17:53:10.929Z,1.00
2018-11-03T17:55:39.038Z,1.00
2018-11-03T17:58:07.158Z,1.00
2018-11-03T18:00:35.352Z,1.00
2018-11-03T18:03:03.400Z,1.00
2018-11-03T18:05:31.574Z,1.00
2018-11-03T18:07:59.677Z,1.00
2018-11-03T18:10:27.789Z,1.00
2018-11-03T18:12:55.948Z,1.00
2018-11-03T18:15:24.035Z,1.00
2018-11-03T18:17:52.141Z,1.00
2018-11-03T18:20:20.248Z,1.00
2018-11-03T18:22:48.380Z,1.00
2018-11-03T18:25:16.489Z,1.00
2018-11-03T18:27:44.608Z,1.00
2018-11-03T18:30:13.433Z,1.00
2018-11-03T18:32:41.891Z,1.00
2018-11-03T18:35:10.522Z,1.00
2018-11-03T18:37:38.724Z,1.00
2018-11-03T18:40:07.321Z,1.00
2018-11-03T18:42:35.442Z,1.00
2018-11-03T18:45:03.638Z,1.00
2018-11-03T18:47:31.754Z,1.00
2018-11-03T18:49:59.857Z,1.00
2018-11-03T18:52:27.993Z,1.00
2018-11-03T18:54:56.101Z,1.00
2018-11-03T18:57:24.234Z,1.00
2018-11-03T18:59:52.344Z,1.00
2018-11-03T19:02:20.551Z,1.00
2018-11-03T19:04:48.580Z,1.00
2018-11-03T19:07:16.717Z,1.00
2018-11-03T19:09:44.825Z,1.00
2018-11-03T19:12:12.933Z,1.00
2018-11-03T19:14:41.033Z,1.00
2018-11-03T19:17:09.169Z,1.00
2018-11-03T19:19:37.256Z,1.00
2018-11-03T19:22:05.368Z,1.00
2018-11-03T19:24:33.491Z,1.00
2018-11-03T19:27:01.640Z,1.00
2018-11-03T19:29:29.794Z,1.00
2018-11-03T19:31:58.058Z,1.00
2018-11-03T19:34:26.228Z,1.00
2018-11-03T19:36:54.381Z,1.00
2018-11-03T19:39:22.536Z,1.00
2018-11-03T19:41:50.778Z,1.00
2018-11-03T19:44:18.861Z,1.00
2018-11-03T19:46:47.004Z,1.00
2018-11-03T19:49:15.185Z,1.00
2018-11-03T19:51:43.391Z,1.00
2018-11-03T19:54:11.502Z,1.00
2018-11-03T19:56:39.640Z,1.00
2018-11-03T19:59:07.801Z,1.00
2018-11-03T20:01:36.071Z,1.00
2018-11-03T20:04:05.154Z,1.00
2018-11-03T20:06:33.297Z,1.00
2018-11-03T20:09:01.458Z,1.00
2018-11-03T20:11:29.689Z,1.00
2018-11-03T20:13:57.906Z,1.00
2018-11-03T20:16:25.990Z,1.00
2018-11-03T20:18:54.163Z,1.00
2018-11-03T20:21:22.358Z,1.00
2018-11-03T20:23:50.679Z,1.00
2018-11-03T20:26:18.965Z,1.00
2018-11-03T20:28:46.984Z,1.00
2018-11-03T20:31:15.154Z,1.00
2018-11-03T20:33:43.310Z,1.00
2018-11-03T20:36:11.458Z,1.00
2018-11-03T20:38:39.605Z,1.00
2018-11-03T20:41:07.717Z,1.00
2018-11-03T20:43:35.826Z,1.00
2018-11-03T20:46:04.017Z,1.00
2018-11-03T20:48:32.151Z,1.00
2018-11-03T20:51:11.105Z,1.00
2018-11-03T20:53:39.876Z,1.00
2018-11-03T20:56:08.485Z,1.00
2018-11-03T20:58:37.278Z,1.00
2018-11-03T21:01:05.876Z,1.00
2018-11-03T21:03:33.982Z,1.00
2018-11-03T21:06:02.109Z,1.00
2018-11-03T21:08:30.224Z,1.00
2018-11-03T21:10:58.328Z,1.00
2018-11-03T21:13:27.225Z,1.00
2018-11-03T21:15:55.342Z,1.00
2018-11-03T21:18:23.442Z,1.00
2018-11-03T21:20:51.552Z,1.00
2018-11-03T21:23:22.774Z,1.00
2018-11-03T21:25:54.278Z,1.00
2018-11-03T21:28:22.409Z,1.00
2018-11-03T21:30:50.549Z,1.00
2018-11-03T21:33:18.716Z,1.00
2018-11-03T21:35:46.795Z,1.00
2018-11-03T21:38:14.940Z,1.00
2018-11-03T21:40:43.037Z,1.00
2018-11-03T21:43:11.162Z,1.00
2018-11-03T21:45:39.270Z,1.00
2018-11-03T21:48:07.432Z,1.00
2018-11-03T21:50:35.533Z,1.00
2018-11-03T21:53:03.630Z,1.00
2018-11-03T21:55:31.766Z,1.00
2018-11-03T21:57:59.890Z,1.00
2018-11-03T22:00:28.033Z,1.00
2018-11-03T22:02:56.158Z,1.00
2018-11-03T22:05:25.281Z,1.00
2018-11-03T22:07:53.445Z,1.00
2018-11-03T22:10:21.541Z,1.00
2018-11-03T22:12:49.636Z,1.00
2018-11-03T22:15:17.754Z,1.00
2018-11-03T22:17:45.949Z,1.00
2018-11-03T22:20:14.074Z,1.00
2018-11-03T22:22:42.174Z,1.00
2018-11-03T22:25:11.315Z,1.00
2018-11-03T22:27:39.425Z,1.00
2018-11-03T22:30:09.170Z,1.00
2018-11-03T22:32:37.277Z,1.00
2018-11-03T22:35:06.071Z,1.00
2018-11-03T22:37:34.240Z,1.00
2018-11-03T22:40:02.448Z,1.00
2018-11-03T22:42:30.564Z,1.00
2018-11-03T22:44:58.712Z,1.00
2018-11-03T22:47:26.853Z,1.00
2018-11-03T22:49:54.954Z,1.00
2018-11-03T22:52:23.076Z,1.00
2018-11-03T22:54:51.176Z,1.00
2018-11-03T22:57:19.285Z,1.00
2018-11-03T22:59:47.390Z,1.00
2018-11-03T23:02:15.525Z,1.00
2018-11-03T23:04:43.630Z,1.00
2018-11-03T23:07:11.783Z,1.00
2018-11-03T23:09:39.878Z,1.00
2018-11-03T23:12:08.058Z,1.00
2018-11-03T23:14:36.352Z,1.00
2018-11-03T23:17:04.454Z,1.00
2018-11-03T23:19:32.541Z,1.10
2018-11-03T23:22:00.649Z,6.30
2018-11-03T23:24:28.745Z,6.40
2018-11-03T23:26:56.866Z,7.00
2018-11-03T23:29:28.540Z,15.10
2018-11-03T23:31:56.642Z,18.00
2018-11-03T23:34:24.736Z,18.30
2018-11-03T23:36:52.889Z,25.00
2018-11-03T23:39:21.335Z,23.90
2018-11-03T23:41:49.442Z,26.00
2018-11-03T23:44:17.560Z,26.80
2018-11-03T23:46:46.290Z,39.50
2018-11-03T23:49:14.513Z,39.40
2018-11-03T23:51:43.769Z,48.20
2018-11-03T23:54:12.057Z,46.90
2018-11-03T23:56:40.221Z,46.60
2018-11-03T23:59:08.339Z,47.30
